LDZALJLJ

Guest
Details From LDZA - Zagreb
To LJLJ - LJUBLJANA
Flight Number -
Tags generated
Created
Modified
Stats Distance 73 nm / 136 km
Max Altitude 3,300 ft / 1,006 m
Waypoints 3
Social Downloads 3
Likes 0
Share VATSIM

Download

Looking for another format? Having issues loading an existing format? Contact us
Advertisement - Login to hide

Notes

Basic altitude profile: - Ascent Rate: 2500ft/min - Ascent Speed: 250kts - Cruise Altitude: 35000ft - Cruise Speed: 420kts - Descent Rate: 1500ft/min - Descent Speed: 250kts Options: - Use NATs: yes - Use PACOTS: yes - Use low airways: yes - Use high airways: yes

Route

LDZA DOL LJLJ

ID Type Via Altitude Latitude Longitude Leg Dist Tot Dist Heading (true) Name
O LDZA APT - 0 ft / 0 m 45.74189˚ 16.06720˚ - 0 nm - Zagreb
DOL VOR - 3,300 ft / 1,006 m 46.08414˚ 14.77857˚ 57 nm 57 nm 291° / 290° DOLSKO VOR-DME
O LJLJ APT - 0 ft / 0 m 46.22368˚ 14.45761˚ 15 nm 73 nm 302° / 302° LJUBLJANA

Altitude Profile

Advertisement - Login to hide

LDZA

Details ICAO LDZA (ZAG)
Name Zagreb
Region Croatia
Timezone Europe/Zagreb (UTC+1.0)
Stats Elevation 353 ft / 108 m (AMSL)
Location 45.741890° 16.067200°
Runways 1
Magnetic Variation 3.960° E

METAR

LDZA 180700Z 28003KT 250V310 0100 R05/0250N R23/0275N FZFG VV001 M03/M04 Q1024 BECMG FM0800 0400 VV002

Decode

TAF

TAF LDZA 180525Z 1806/1906 VRB02KT 0400 FZFG NSC TX03/1814Z TNM07/1905Z PROB40 TEMPO 1806/1808 0200 VV001 PROB30 TEMPO 1806/1808 1500 BCFG BECMG 1808/1810 6000 NSW BECMG 1817/1819 3000 BR PROB40 1820/1902 0300 FZFG VV001 BECMG 1900/1902 0100 FZFG VV001

Decode

Departure Runways

ID Width Length Bearing (true) Bearing (mag) Surface Threshold Offset Overrun Length
05 148 ft / 45 m 10,659 ft / 3,249 m 46.69° 42.73° Asphalt 0 ft / 0 m 195 ft / 59 m
23 148 ft / 45 m 10,659 ft / 3,249 m 226.71° 222.75° Asphalt 0 ft / 0 m 195 ft / 59 m

LJLJ

Details ICAO LJLJ (LJU)
Name LJUBLJANA
Region Slovenia
Timezone Europe/Ljubljana (UTC+1.0)
Stats Elevation 1,273 ft / 388 m (AMSL)
Location 46.223685° 14.457608°
Runways 1
Magnetic Variation 3.663° E

METAR

LJLJ 180700Z VRB02KT 5000 BR OVC003 M04/M04 Q1023 NOSIG

Decode

TAF

TAF AMD LJLJ 180427Z 1804/1903 VRB02KT 5000 BR OVC003 BECMG 1805/1807 7000 NSW TEMPO 1818/1903 3500 BR PROB30 TEMPO 1812/1818 FEW003 SCT100

Decode

Destination Runways

ID Width Length Bearing (true) Bearing (mag) Surface Threshold Offset Overrun Length
13 148 ft / 45 m 10,811 ft / 3,295 m 126.47° 122.81° Asphalt 0 ft / 0 m 0 ft / 0 m
31 148 ft / 45 m 10,811 ft / 3,295 m 306.49° 302.83° Asphalt 0 ft / 0 m 0 ft / 0 m

Approach Navaids

Runway Type Ident Frequency Range Bearing (true) Bearing (mag) Slope Elevation
31 Localiser LJB 110.50 MHz 18 nm / 33 km 306.46° 302.80° - 1,282 ft / 391 m (AMSL)
31 Glidescope LJB 110.50 MHz 10 nm / 19 km 306.48° 302.82° 3.00° 1,198 ft / 365 m (AMSL)
31 DME LJB 110.50 MHz 18 nm / 33 km - - - 1,198 ft / 365 m (AMSL)

Popular Alternatives